Alma, Kansas
Current Conditions -  °F | °C
As of 5:04 AM on Saturday 20 Dec 2014 (Local Time) from KMHK Reporting Station
Haze Haze  
Wind Chill: 27°   Ceiling: Unl
Heat Index: 27°   Visibility: 3mi
Dew Point: 26°   Wind: 0mph
Humidity: 96%   Direction: NA
Pressure: 30.13"   Gusts: NA
Location:  39.02°N, 96.29°W
Report Text: KMHK 201104Z AUTO 00000KT 3SM BR CLR M03/M03 A3013 RMK AO2 T10281033 TSNO
Loading
Personal Weather Stations






























Interactive Weather Map New forecast layout! Learn more

10-Day Weather Forecast

Advertisements
Track Severe Weather on mobile